sensor_id;sensor_type;location;lat;lon;timestamp;temperature;humidity
68128;SHT30;54931;52.098;21.006;2023-04-03T00:01:28;2.59;58.57
68128;SHT30;54931;52.098;21.006;2023-04-03T00:03:56;2.56;58.43
68128;SHT30;54931;52.098;21.006;2023-04-03T00:06:24;2.54;58.31
68128;SHT30;54931;52.098;21.006;2023-04-03T00:08:52;2.51;58.11
68128;SHT30;54931;52.098;21.006;2023-04-03T00:11:20;2.49;57.65
68128;SHT30;54931;52.098;21.006;2023-04-03T00:13:48;2.44;58.17
68128;SHT30;54931;52.098;21.006;2023-04-03T00:16:16;2.40;58.44
68128;SHT30;54931;52.098;21.006;2023-04-03T00:18:44;2.36;58.72
68128;SHT30;54931;52.098;21.006;2023-04-03T00:21:12;2.30;58.64
68128;SHT30;54931;52.098;21.006;2023-04-03T00:23:41;2.28;58.63
68128;SHT30;54931;52.098;21.006;2023-04-03T00:26:10;2.21;58.58
68128;SHT30;54931;52.098;21.006;2023-04-03T00:28:37;2.18;58.91
68128;SHT30;54931;52.098;21.006;2023-04-03T00:31:05;2.14;58.52
68128;SHT30;54931;52.098;21.006;2023-04-03T00:33:33;2.11;58.80
68128;SHT30;54931;52.098;21.006;2023-04-03T00:36:10;2.05;59.08
68128;SHT30;54931;52.098;21.006;2023-04-03T00:38:39;2.00;58.89
68128;SHT30;54931;52.098;21.006;2023-04-03T00:41:07;1.94;58.98
68128;SHT30;54931;52.098;21.006;2023-04-03T00:43:35;1.89;58.95
68128;SHT30;54931;52.098;21.006;2023-04-03T00:46:03;1.86;58.89
68128;SHT30;54931;52.098;21.006;2023-04-03T00:48:34;1.84;59.10
68128;SHT30;54931;52.098;21.006;2023-04-03T00:51:09;1.78;59.13
68128;SHT30;54931;52.098;21.006;2023-04-03T00:53:44;1.76;58.22
68128;SHT30;54931;52.098;21.006;2023-04-03T00:56:18;1.74;58.24
68128;SHT30;54931;52.098;21.006;2023-04-03T00:58:51;1.71;58.11
68128;SHT30;54931;52.098;21.006;2023-04-03T01:01:31;1.67;58.69
68128;SHT30;54931;52.098;21.006;2023-04-03T01:03:59;1.62;59.03
68128;SHT30;54931;52.098;21.006;2023-04-03T01:06:34;1.55;58.94
68128;SHT30;54931;52.098;21.006;2023-04-03T01:09:04;1.51;58.69
68128;SHT30;54931;52.098;21.006;2023-04-03T01:11:33;1.49;58.74
68128;SHT30;54931;52.098;21.006;2023-04-03T01:14:00;1.46;59.09
68128;SHT30;54931;52.098;21.006;2023-04-03T01:16:29;1.41;59.00
68128;SHT30;54931;52.098;21.006;2023-04-03T01:18:58;1.39;58.68
68128;SHT30;54931;52.098;21.006;2023-04-03T01:21:48;1.36;59.34
68128;SHT30;54931;52.098;21.006;2023-04-03T01:24:56;1.27;59.40
68128;SHT30;54931;52.098;21.006;2023-04-03T01:27:24;1.23;59.24
68128;SHT30;54931;52.098;21.006;2023-04-03T01:29:51;1.21;59.33
68128;SHT30;54931;52.098;21.006;2023-04-03T01:32:19;1.17;59.42
68128;SHT30;54931;52.098;21.006;2023-04-03T01:34:47;1.14;59.28
68128;SHT30;54931;52.098;21.006;2023-04-03T01:37:14;1.12;63.12
68128;SHT30;54931;52.098;21.006;2023-04-03T01:39:42;1.09;63.15
68128;SHT30;54931;52.098;21.006;2023-04-03T01:42:10;1.07;63.23
68128;SHT30;54931;52.098;21.006;2023-04-03T01:44:38;1.06;62.91
68128;SHT30;54931;52.098;21.006;2023-04-03T01:47:06;1.05;62.90
68128;SHT30;54931;52.098;21.006;2023-04-03T01:49:34;1.02;63.27
68128;SHT30;54931;52.098;21.006;2023-04-03T01:52:02;0.97;63.42
68128;SHT30;54931;52.098;21.006;2023-04-03T01:54:29;0.93;63.57
68128;SHT30;54931;52.098;21.006;2023-04-03T01:56:58;0.90;63.49
68128;SHT30;54931;52.098;21.006;2023-04-03T01:59:25;0.86;63.55
68128;SHT30;54931;52.098;21.006;2023-04-03T02:01:53;0.85;63.53
68128;SHT30;54931;52.098;21.006;2023-04-03T02:04:21;0.83;63.62
68128;SHT30;54931;52.098;21.006;2023-04-03T02:06:49;0.78;63.90
68128;SHT30;54931;52.098;21.006;2023-04-03T02:09:17;0.74;64.01
68128;SHT30;54931;52.098;21.006;2023-04-03T02:11:46;0.70;63.98
68128;SHT30;54931;52.098;21.006;2023-04-03T02:14:13;0.67;64.15
68128;SHT30;54931;52.098;21.006;2023-04-03T02:16:41;0.63;64.25
68128;SHT30;54931;52.098;21.006;2023-04-03T02:19:09;0.60;64.28
68128;SHT30;54931;52.098;21.006;2023-04-03T02:21:37;0.58;64.30
68128;SHT30;54931;52.098;21.006;2023-04-03T02:24:04;0.55;64.23
68128;SHT30;54931;52.098;21.006;2023-04-03T02:26:32;0.52;64.32
68128;SHT30;54931;52.098;21.006;2023-04-03T02:29:00;0.51;64.50
68128;SHT30;54931;52.098;21.006;2023-04-03T02:31:27;0.48;64.35
68128;SHT30;54931;52.098;21.006;2023-04-03T02:33:55;0.47;64.53
68128;SHT30;54931;52.098;21.006;2023-04-03T02:36:22;0.43;64.61
68128;SHT30;54931;52.098;21.006;2023-04-03T02:38:50;0.41;64.31
68128;SHT30;54931;52.098;21.006;2023-04-03T02:41:17;0.42;64.27
68128;SHT30;54931;52.098;21.006;2023-04-03T02:43:45;0.38;64.53
68128;SHT30;54931;52.098;21.006;2023-04-03T02:46:12;0.35;64.78
68128;SHT30;54931;52.098;21.006;2023-04-03T02:48:42;0.30;64.93
68128;SHT30;54931;52.098;21.006;2023-04-03T02:51:10;0.26;64.87
68128;SHT30;54931;52.098;21.006;2023-04-03T02:53:38;0.23;65.05
68128;SHT30;54931;52.098;21.006;2023-04-03T02:56:05;0.20;65.26
68128;SHT30;54931;52.098;21.006;2023-04-03T02:58:33;0.15;65.26
68128;SHT30;54931;52.098;21.006;2023-04-03T03:01:01;0.13;65.09
68128;SHT30;54931;52.098;21.006;2023-04-03T03:03:29;0.11;65.15
68128;SHT30;54931;52.098;21.006;2023-04-03T03:06:03;0.12;64.89
68128;SHT30;54931;52.098;21.006;2023-04-03T03:08:34;0.12;65.11
68128;SHT30;54931;52.098;21.006;2023-04-03T03:11:04;0.09;65.22
68128;SHT30;54931;52.098;21.006;2023-04-03T03:13:31;0.06;65.41
68128;SHT30;54931;52.098;21.006;2023-04-03T03:16:00;0.03;65.43
68128;SHT30;54931;52.098;21.006;2023-04-03T03:18:28;-0.00;65.39
68128;SHT30;54931;52.098;21.006;2023-04-03T03:20:58;-0.04;65.63
68128;SHT30;54931;52.098;21.006;2023-04-03T03:23:28;-0.07;65.68
68128;SHT30;54931;52.098;21.006;2023-04-03T03:26:00;-0.09;65.78
68128;SHT30;54931;52.098;21.006;2023-04-03T03:28:31;-0.12;65.87
68128;SHT30;54931;52.098;21.006;2023-04-03T03:30:59;-0.12;65.93
68128;SHT30;54931;52.098;21.006;2023-04-03T03:33:28;-0.13;65.92
68128;SHT30;54931;52.098;21.006;2023-04-03T03:35:56;-0.13;65.91
68128;SHT30;54931;52.098;21.006;2023-04-03T03:38:24;-0.14;65.87
68128;SHT30;54931;52.098;21.006;2023-04-03T03:40:52;-0.16;66.09
68128;SHT30;54931;52.098;21.006;2023-04-03T03:43:20;-0.18;66.21
68128;SHT30;54931;52.098;21.006;2023-04-03T03:45:52;-0.22;66.45
68128;SHT30;54931;52.098;21.006;2023-04-03T03:48:20;-0.25;66.52
68128;SHT30;54931;52.098;21.006;2023-04-03T03:50:49;-0.28;66.54
68128;SHT30;54931;52.098;21.006;2023-04-03T03:53:17;-0.30;66.48
68128;SHT30;54931;52.098;21.006;2023-04-03T03:55:45;-0.28;66.48
68128;SHT30;54931;52.098;21.006;2023-04-03T03:58:12;-0.31;66.72
68128;SHT30;54931;52.098;21.006;2023-04-03T04:00:39;-0.34;66.81
68128;SHT30;54931;52.098;21.006;2023-04-03T04:03:07;-0.36;66.64
68128;SHT30;54931;52.098;21.006;2023-04-03T04:05:35;-0.34;66.81
68128;SHT30;54931;52.098;21.006;2023-04-03T04:08:02;-0.34;66.88
68128;SHT30;54931;52.098;21.006;2023-04-03T04:10:30;-0.35;66.81
68128;SHT30;54931;52.098;21.006;2023-04-03T04:12:58;-0.35;66.96
68128;SHT30;54931;52.098;21.006;2023-04-03T04:15:26;-0.34;66.88
68128;SHT30;54931;52.098;21.006;2023-04-03T04:17:54;-0.34;66.96
68128;SHT30;54931;52.098;21.006;2023-04-03T04:20:22;-0.35;67.14
68128;SHT30;54931;52.098;21.006;2023-04-03T04:22:50;-0.37;66.90
68128;SHT30;54931;52.098;21.006;2023-04-03T04:25:17;-0.34;66.80
68128;SHT30;54931;52.098;21.006;2023-04-03T04:27:48;-0.35;67.03
68128;SHT30;54931;52.098;21.006;2023-04-03T04:30:16;-0.36;66.89
68128;SHT30;54931;52.098;21.006;2023-04-03T04:32:44;-0.35;66.78
68128;SHT30;54931;52.098;21.006;2023-04-03T04:35:12;-0.35;66.96
68128;SHT30;54931;52.098;21.006;2023-04-03T04:37:42;-0.37;66.93
68128;SHT30;54931;52.098;21.006;2023-04-03T04:40:09;-0.34;66.96
68128;SHT30;54931;52.098;21.006;2023-04-03T04:42:37;-0.35;67.02
68128;SHT30;54931;52.098;21.006;2023-04-03T04:45:05;-0.36;67.07
68128;SHT30;54931;52.098;21.006;2023-04-03T04:47:34;-0.36;67.10
68128;SHT30;54931;52.098;21.006;2023-04-03T04:50:02;-0.34;67.09
68128;SHT30;54931;52.098;21.006;2023-04-03T04:52:31;-0.33;67.20
68128;SHT30;54931;52.098;21.006;2023-04-03T04:54:59;-0.32;67.10
68128;SHT30;54931;52.098;21.006;2023-04-03T04:57:27;-0.30;67.23
68128;SHT30;54931;52.098;21.006;2023-04-03T04:59:55;-0.29;67.22
68128;SHT30;54931;52.098;21.006;2023-04-03T05:02:22;-0.28;67.08
68128;SHT30;54931;52.098;21.006;2023-04-03T05:04:50;-0.27;66.96
68128;SHT30;54931;52.098;21.006;2023-04-03T05:07:18;-0.23;66.91
68128;SHT30;54931;52.098;21.006;2023-04-03T05:09:46;-0.22;67.22
68128;SHT30;54931;52.098;21.006;2023-04-03T05:12:14;-0.20;67.24
68128;SHT30;54931;52.098;21.006;2023-04-03T05:14:41;-0.18;67.09
68128;SHT30;54931;52.098;21.006;2023-04-03T05:17:09;-0.16;67.01
68128;SHT30;54931;52.098;21.006;2023-04-03T05:19:37;-0.10;66.79
68128;SHT30;54931;52.098;21.006;2023-04-03T05:22:04;0.00;66.90
68128;SHT30;54931;52.098;21.006;2023-04-03T05:24:32;0.14;66.44
68128;SHT30;54931;52.098;21.006;2023-04-03T05:27:00;0.15;66.02
68128;SHT30;54931;52.098;21.006;2023-04-03T05:29:27;0.27;65.97
68128;SHT30;54931;52.098;21.006;2023-04-03T05:31:55;0.49;65.28
68128;SHT30;54931;52.098;21.006;2023-04-03T05:34:23;0.65;65.09
68128;SHT30;54931;52.098;21.006;2023-04-03T05:36:50;0.86;65.21
68128;SHT30;54931;52.098;21.006;2023-04-03T05:39:18;1.00;64.61
68128;SHT30;54931;52.098;21.006;2023-04-03T05:41:46;1.15;64.46
68128;SHT30;54931;52.098;21.006;2023-04-03T05:44:13;1.24;63.32
68128;SHT30;54931;52.098;21.006;2023-04-03T05:46:41;1.19;62.49
68128;SHT30;54931;52.098;21.006;2023-04-03T05:49:09;1.31;62.71
68128;SHT30;54931;52.098;21.006;2023-04-03T05:51:38;1.72;62.03
68128;SHT30;54931;52.098;21.006;2023-04-03T05:54:28;2.17;60.66
68128;SHT30;54931;52.098;21.006;2023-04-03T05:56:57;2.62;59.54
68128;SHT30;54931;52.098;21.006;2023-04-03T05:59:24;3.05;59.21
68128;SHT30;54931;52.098;21.006;2023-04-03T06:01:52;3.27;57.69
68128;SHT30;54931;52.098;21.006;2023-04-03T06:04:20;3.40;56.87
68128;SHT30;54931;52.098;21.006;2023-04-03T06:06:52;3.61;56.25
68128;SHT30;54931;52.098;21.006;2023-04-03T06:09:24;3.70;55.10
68128;SHT30;54931;52.098;21.006;2023-04-03T06:11:55;3.84;54.79
68128;SHT30;54931;52.098;21.006;2023-04-03T06:14:26;3.92;54.30
68128;SHT30;54931;52.098;21.006;2023-04-03T06:16:54;4.03;54.15
68128;SHT30;54931;52.098;21.006;2023-04-03T06:19:22;4.24;54.13
68128;SHT30;54931;52.098;21.006;2023-04-03T06:21:50;4.43;53.38
68128;SHT30;54931;52.098;21.006;2023-04-03T06:24:18;4.72;53.27
68128;SHT30;54931;52.098;21.006;2023-04-03T06:26:46;4.83;52.36
68128;SHT30;54931;52.098;21.006;2023-04-03T06:29:16;4.84;51.32
68128;SHT30;54931;52.098;21.006;2023-04-03T06:31:43;4.72;51.34
68128;SHT30;54931;52.098;21.006;2023-04-03T06:34:12;4.79;51.57
68128;SHT30;54931;52.098;21.006;2023-04-03T06:36:41;4.89;51.74
68128;SHT30;54931;52.098;21.006;2023-04-03T06:39:19;5.12;51.78
68128;SHT30;54931;52.098;21.006;2023-04-03T06:41:50;5.26;50.68
68128;SHT30;54931;52.098;21.006;2023-04-03T06:44:19;5.19;49.89
68128;SHT30;54931;52.098;21.006;2023-04-03T06:46:46;5.28;50.39
68128;SHT30;54931;52.098;21.006;2023-04-03T06:49:14;5.26;49.75
68128;SHT30;54931;52.098;21.006;2023-04-03T06:51:42;5.30;50.05
68128;SHT30;54931;52.098;21.006;2023-04-03T06:54:10;5.51;50.27
68128;SHT30;54931;52.098;21.006;2023-04-03T06:56:37;5.63;49.90
68128;SHT30;54931;52.098;21.006;2023-04-03T06:59:05;5.73;49.46
68128;SHT30;54931;52.098;21.006;2023-04-03T07:01:33;5.72;48.48
68128;SHT30;54931;52.098;21.006;2023-04-03T07:04:00;5.80;49.16
68128;SHT30;54931;52.098;21.006;2023-04-03T07:06:28;5.94;48.93
68128;SHT30;54931;52.098;21.006;2023-04-03T07:08:58;5.97;48.71
68128;SHT30;54931;52.098;21.006;2023-04-03T07:11:25;6.03;48.82
68128;SHT30;54931;52.098;21.006;2023-04-03T07:13:55;6.11;48.41
68128;SHT30;54931;52.098;21.006;2023-04-03T07:16:23;6.12;47.69
68128;SHT30;54931;52.098;21.006;2023-04-03T07:18:51;6.14;48.34
68128;SHT30;54931;52.098;21.006;2023-04-03T07:21:19;6.39;48.72
68128;SHT30;54931;52.098;21.006;2023-04-03T07:23:47;6.65;47.74
68128;SHT30;54931;52.098;21.006;2023-04-03T07:26:14;6.69;47.62
68128;SHT30;54931;52.098;21.006;2023-04-03T07:28:42;6.82;47.64
68128;SHT30;54931;52.098;21.006;2023-04-03T07:31:11;6.89;46.69
68128;SHT30;54931;52.098;21.006;2023-04-03T07:33:43;6.82;45.77
68128;SHT30;54931;52.098;21.006;2023-04-03T07:36:14;6.78;46.46
68128;SHT30;54931;52.098;21.006;2023-04-03T07:38:45;6.95;46.32
68128;SHT30;54931;52.098;21.006;2023-04-03T07:41:14;7.06;45.92
68128;SHT30;54931;52.098;21.006;2023-04-03T07:43:45;7.23;45.95
68128;SHT30;54931;52.098;21.006;2023-04-03T07:46:14;7.36;45.84
68128;SHT30;54931;52.098;21.006;2023-04-03T07:48:42;7.49;45.30
68128;SHT30;54931;52.098;21.006;2023-04-03T07:51:09;7.55;44.02
68128;SHT30;54931;52.098;21.006;2023-04-03T07:53:37;7.38;43.83
68128;SHT30;54931;52.098;21.006;2023-04-03T07:56:05;7.28;44.57
68128;SHT30;54931;52.098;21.006;2023-04-03T07:58:33;7.34;44.03
68128;SHT30;54931;52.098;21.006;2023-04-03T08:01:00;7.43;43.63
68128;SHT30;54931;52.098;21.006;2023-04-03T08:03:28;7.41;42.81
68128;SHT30;54931;52.098;21.006;2023-04-03T08:06:00;7.34;43.10
68128;SHT30;54931;52.098;21.006;2023-04-03T08:08:30;7.30;42.11
68128;SHT30;54931;52.098;21.006;2023-04-03T08:11:00;7.22;41.99
68128;SHT30;54931;52.098;21.006;2023-04-03T08:13:30;7.20;42.32
68128;SHT30;54931;52.098;21.006;2023-04-03T08:15:57;7.27;42.58
68128;SHT30;54931;52.098;21.006;2023-04-03T08:18:27;7.32;42.19
68128;SHT30;54931;52.098;21.006;2023-04-03T08:20:55;7.26;41.19
68128;SHT30;54931;52.098;21.006;2023-04-03T08:23:22;7.18;42.04
68128;SHT30;54931;52.098;21.006;2023-04-03T08:25:50;7.13;40.67
68128;SHT30;54931;52.098;21.006;2023-04-03T08:28:17;7.00;40.87
68128;SHT30;54931;52.098;21.006;2023-04-03T08:30:45;6.90;40.34
68128;SHT30;54931;52.098;21.006;2023-04-03T08:33:12;6.86;40.56
68128;SHT30;54931;52.098;21.006;2023-04-03T08:35:40;6.91;40.96
68128;SHT30;54931;52.098;21.006;2023-04-03T08:38:08;7.05;40.70
68128;SHT30;54931;52.098;21.006;2023-04-03T08:40:37;7.16;40.86
68128;SHT30;54931;52.098;21.006;2023-04-03T08:43:20;7.40;40.63
68128;SHT30;54931;52.098;21.006;2023-04-03T08:46:13;7.73;41.01
68128;SHT30;54931;52.098;21.006;2023-04-03T08:48:42;7.81;38.92
68128;SHT30;54931;52.098;21.006;2023-04-03T08:51:15;7.82;39.34
68128;SHT30;54931;52.098;21.006;2023-04-03T08:53:48;7.94;38.92
68128;SHT30;54931;52.098;21.006;2023-04-03T08:56:25;7.92;37.53
68128;SHT30;54931;52.098;21.006;2023-04-03T08:58:58;7.89;37.00
68128;SHT30;54931;52.098;21.006;2023-04-03T09:01:38;7.88;37.40
68128;SHT30;54931;52.098;21.006;2023-04-03T09:04:14;7.99;38.55
68128;SHT30;54931;52.098;21.006;2023-04-03T09:06:44;7.94;38.08
68128;SHT30;54931;52.098;21.006;2023-04-03T09:12:19;7.09;38.31
68128;SHT30;54931;52.098;21.006;2023-04-03T09:17:42;6.55;38.12
68128;SHT30;54931;52.098;21.006;2023-04-03T09:20:33;6.84;38.41
68128;SHT30;54931;52.098;21.006;2023-04-03T09:23:22;7.31;38.91
68128;SHT30;54931;52.098;21.006;2023-04-03T09:26:08;7.71;37.34
68128;SHT30;54931;52.098;21.006;2023-04-03T09:28:43;8.16;37.93
68128;SHT30;54931;52.098;21.006;2023-04-03T09:31:20;8.51;35.66
68128;SHT30;54931;52.098;21.006;2023-04-03T09:33:50;8.65;34.91
68128;SHT30;54931;52.098;21.006;2023-04-03T09:39:27;8.68;34.70
68128;SHT30;54931;52.098;21.006;2023-04-03T09:41:57;8.57;34.19
68128;SHT30;54931;52.098;21.006;2023-04-03T09:44:35;8.28;34.83
68128;SHT30;54931;52.098;21.006;2023-04-03T09:47:19;8.01;34.64
68128;SHT30;54931;52.098;21.006;2023-04-03T09:50:52;7.90;35.76
68128;SHT30;54931;52.098;21.006;2023-04-03T09:52:41;8.08;35.77
68128;SHT30;54931;52.098;21.006;2023-04-03T09:55:23;8.36;36.61
68128;SHT30;54931;52.098;21.006;2023-04-03T09:57:57;8.67;35.71
68128;SHT30;54931;52.098;21.006;2023-04-03T10:00:37;8.56;34.93
68128;SHT30;54931;52.098;21.006;2023-04-03T10:03:23;8.11;34.29
68128;SHT30;54931;52.098;21.006;2023-04-03T10:05:53;7.75;35.46
68128;SHT30;54931;52.098;21.006;2023-04-03T10:08:23;7.51;35.52
68128;SHT30;54931;52.098;21.006;2023-04-03T10:11:13;7.21;35.60
68128;SHT30;54931;52.098;21.006;2023-04-03T10:13:51;6.97;36.82
68128;SHT30;54931;52.098;21.006;2023-04-03T10:16:21;6.88;36.69
68128;SHT30;54931;52.098;21.006;2023-04-03T10:19:00;7.16;36.91
68128;SHT30;54931;52.098;21.006;2023-04-03T10:21:55;7.49;35.95
68128;SHT30;54931;52.098;21.006;2023-04-03T10:27:06;8.39;36.59
68128;SHT30;54931;52.098;21.006;2023-04-03T10:38:00;9.14;33.27
68128;SHT30;54931;52.098;21.006;2023-04-03T10:40:38;9.17;34.01
68128;SHT30;54931;52.098;21.006;2023-04-03T10:43:20;9.15;33.73
68128;SHT30;54931;52.098;21.006;2023-04-03T10:46:08;9.01;33.91
68128;SHT30;54931;52.098;21.006;2023-04-03T10:48:51;9.12;33.37
68128;SHT30;54931;52.098;21.006;2023-04-03T10:56:30;9.01;33.54
68128;SHT30;54931;52.098;21.006;2023-04-03T11:05:07;8.57;34.87
68128;SHT30;54931;52.098;21.006;2023-04-03T11:07:47;8.78;33.71
68128;SHT30;54931;52.098;21.006;2023-04-03T11:10:21;8.84;34.47
68128;SHT30;54931;52.098;21.006;2023-04-03T11:13:46;8.86;34.58
68128;SHT30;54931;52.098;21.006;2023-04-03T11:15:52;8.88;34.09
68128;SHT30;54931;52.098;21.006;2023-04-03T11:18:26;8.77;34.19
68128;SHT30;54931;52.098;21.006;2023-04-03T11:23:35;8.24;35.39
68128;SHT30;54931;52.098;21.006;2023-04-03T11:26:17;7.92;35.32
68128;SHT30;54931;52.098;21.006;2023-04-03T11:28:53;7.63;35.89
68128;SHT30;54931;52.098;21.006;2023-04-03T11:31:48;7.22;36.40
68128;SHT30;54931;52.098;21.006;2023-04-03T11:34:45;7.07;37.12
68128;SHT30;54931;52.098;21.006;2023-04-03T11:40:00;7.10;36.29
68128;SHT30;54931;52.098;21.006;2023-04-03T11:42:47;7.34;36.91
68128;SHT30;54931;52.098;21.006;2023-04-03T11:45:53;7.66;36.46
68128;SHT30;54931;52.098;21.006;2023-04-03T11:50:58;7.31;36.86
68128;SHT30;54931;52.098;21.006;2023-04-03T11:53:33;6.99;36.89
68128;SHT30;54931;52.098;21.006;2023-04-03T11:56:26;6.65;37.18
68128;SHT30;54931;52.098;21.006;2023-04-03T12:01:54;7.10;37.95
68128;SHT30;54931;52.098;21.006;2023-04-03T12:04:25;7.31;36.63
68128;SHT30;54931;52.098;21.006;2023-04-03T12:07:11;7.24;35.38
68128;SHT30;54931;52.098;21.006;2023-04-03T12:15:18;7.04;36.58
68128;SHT30;54931;52.098;21.006;2023-04-03T12:21:10;6.78;36.10
68128;SHT30;54931;52.098;21.006;2023-04-03T12:24:00;7.01;36.20
68128;SHT30;54931;52.098;21.006;2023-04-03T12:26:32;7.22;36.40
68128;SHT30;54931;52.098;21.006;2023-04-03T12:35:12;7.20;37.14
68128;SHT30;54931;52.098;21.006;2023-04-03T12:44:31;7.71;35.33
68128;SHT30;54931;52.098;21.006;2023-04-03T12:47:55;7.79;36.12
68128;SHT30;54931;52.098;21.006;2023-04-03T12:50:13;7.81;34.65
68128;SHT30;54931;52.098;21.006;2023-04-03T12:52:52;7.82;34.84
68128;SHT30;54931;52.098;21.006;2023-04-03T12:55:28;7.90;34.39
68128;SHT30;54931;52.098;21.006;2023-04-03T12:57:56;7.84;35.05
68128;SHT30;54931;52.098;21.006;2023-04-03T13:00:28;7.71;35.02
68128;SHT30;54931;52.098;21.006;2023-04-03T13:03:03;7.54;35.03
68128;SHT30;54931;52.098;21.006;2023-04-03T13:05:40;7.50;35.30
68128;SHT30;54931;52.098;21.006;2023-04-03T13:08:12;7.43;34.66
68128;SHT30;54931;52.098;21.006;2023-04-03T13:13:27;7.08;35.86
68128;SHT30;54931;52.098;21.006;2023-04-03T13:15:57;7.00;35.68
68128;SHT30;54931;52.098;21.006;2023-04-03T13:18:27;6.93;36.06
68128;SHT30;54931;52.098;21.006;2023-04-03T13:23:43;6.82;36.25
68128;SHT30;54931;52.098;21.006;2023-04-03T13:26:16;6.75;37.04
68128;SHT30;54931;52.098;21.006;2023-04-03T13:28:47;6.69;37.56
68128;SHT30;54931;52.098;21.006;2023-04-03T13:31:22;6.75;37.39
68128;SHT30;54931;52.098;21.006;2023-04-03T13:36:40;6.89;35.92
68128;SHT30;54931;52.098;21.006;2023-04-03T13:39:23;7.10;36.15
68128;SHT30;54931;52.098;21.006;2023-04-03T13:41:58;7.24;36.70
68128;SHT30;54931;52.098;21.006;2023-04-03T13:50:00;7.26;35.49
68128;SHT30;54931;52.098;21.006;2023-04-03T13:52:41;7.06;36.82
68128;SHT30;54931;52.098;21.006;2023-04-03T13:55:37;6.94;36.91
68128;SHT30;54931;52.098;21.006;2023-04-03T13:58:32;6.87;36.89
68128;SHT30;54931;52.098;21.006;2023-04-03T14:07:08;6.66;37.06
68128;SHT30;54931;52.098;21.006;2023-04-03T14:09:36;6.83;37.21
68128;SHT30;54931;52.098;21.006;2023-04-03T14:12:06;6.74;37.01
68128;SHT30;54931;52.098;21.006;2023-04-03T14:14:44;6.56;37.32
68128;SHT30;54931;52.098;21.006;2023-04-03T14:17:16;6.47;38.13
68128;SHT30;54931;52.098;21.006;2023-04-03T14:19:48;6.44;37.61
68128;SHT30;54931;52.098;21.006;2023-04-03T14:22:20;6.45;37.51
68128;SHT30;54931;52.098;21.006;2023-04-03T14:24:52;6.44;37.75
68128;SHT30;54931;52.098;21.006;2023-04-03T14:30:00;6.39;38.29
68128;SHT30;54931;52.098;21.006;2023-04-03T14:32:30;6.33;37.79
68128;SHT30;54931;52.098;21.006;2023-04-03T14:34:58;6.31;37.97
68128;SHT30;54931;52.098;21.006;2023-04-03T14:37:28;6.38;38.02
68128;SHT30;54931;52.098;21.006;2023-04-03T14:39:58;6.37;37.64
68128;SHT30;54931;52.098;21.006;2023-04-03T14:42:29;6.29;37.33
68128;SHT30;54931;52.098;21.006;2023-04-03T14:45:02;6.19;37.37
68128;SHT30;54931;52.098;21.006;2023-04-03T14:47:36;6.07;37.61
68128;SHT30;54931;52.098;21.006;2023-04-03T14:50:22;5.95;37.89
68128;SHT30;54931;52.098;21.006;2023-04-03T14:52:55;5.87;38.16
68128;SHT30;54931;52.098;21.006;2023-04-03T14:55:26;5.85;38.85
68128;SHT30;54931;52.098;21.006;2023-04-03T14:57:54;5.83;38.93
68128;SHT30;54931;52.098;21.006;2023-04-03T15:00:22;5.80;38.86
68128;SHT30;54931;52.098;21.006;2023-04-03T15:02:50;5.74;38.77
68128;SHT30;54931;52.098;21.006;2023-04-03T15:05:18;5.68;38.81
68128;SHT30;54931;52.098;21.006;2023-04-03T15:07:48;5.62;38.86
68128;SHT30;54931;52.098;21.006;2023-04-03T15:10:22;5.57;39.36
68128;SHT30;54931;52.098;21.006;2023-04-03T15:12:57;5.55;39.93
68128;SHT30;54931;52.098;21.006;2023-04-03T15:15:27;5.55;40.25
68128;SHT30;54931;52.098;21.006;2023-04-03T15:17:57;5.55;39.32
68128;SHT30;54931;52.098;21.006;2023-04-03T15:20:26;5.55;38.77
68128;SHT30;54931;52.098;21.006;2023-04-03T15:22:57;5.56;39.25
68128;SHT30;54931;52.098;21.006;2023-04-03T15:25:28;5.55;39.63
68128;SHT30;54931;52.098;21.006;2023-04-03T15:27:57;5.56;39.69
68128;SHT30;54931;52.098;21.006;2023-04-03T15:30:26;5.54;39.60
68128;SHT30;54931;52.098;21.006;2023-04-03T15:32:54;5.52;40.05
68128;SHT30;54931;52.098;21.006;2023-04-03T15:35:22;5.52;40.00
68128;SHT30;54931;52.098;21.006;2023-04-03T15:37:50;5.49;40.19
68128;SHT30;54931;52.098;21.006;2023-04-03T15:40:18;5.48;40.05
68128;SHT30;54931;52.098;21.006;2023-04-03T15:42:47;5.46;40.30
68128;SHT30;54931;52.098;21.006;2023-04-03T15:45:15;5.41;40.01
68128;SHT30;54931;52.098;21.006;2023-04-03T15:47:43;5.34;40.27
68128;SHT30;54931;52.098;21.006;2023-04-03T15:50:11;5.25;40.72
68128;SHT30;54931;52.098;21.006;2023-04-03T15:52:39;5.18;41.13
68128;SHT30;54931;52.098;21.006;2023-04-03T15:55:07;5.12;41.27
68128;SHT30;54931;52.098;21.006;2023-04-03T15:57:36;5.08;41.76
68128;SHT30;54931;52.098;21.006;2023-04-03T16:00:04;5.04;42.38
68128;SHT30;54931;52.098;21.006;2023-04-03T16:02:34;4.99;42.00
68128;SHT30;54931;52.098;21.006;2023-04-03T16:05:02;4.95;41.32
68128;SHT30;54931;52.098;21.006;2023-04-03T16:07:31;4.90;40.80
68128;SHT30;54931;52.098;21.006;2023-04-03T16:09:59;4.89;40.64
68128;SHT30;54931;52.098;21.006;2023-04-03T16:12:27;4.85;40.95
68128;SHT30;54931;52.098;21.006;2023-04-03T16:14:55;4.83;41.09
68128;SHT30;54931;52.098;21.006;2023-04-03T16:17:24;4.82;41.36
68128;SHT30;54931;52.098;21.006;2023-04-03T16:19:54;4.80;41.62
68128;SHT30;54931;52.098;21.006;2023-04-03T16:22:23;4.77;42.02
68128;SHT30;54931;52.098;21.006;2023-04-03T16:24:55;4.74;42.23
68128;SHT30;54931;52.098;21.006;2023-04-03T16:27:22;4.72;42.12
68128;SHT30;54931;52.098;21.006;2023-04-03T16:29:54;4.68;42.16
68128;SHT30;54931;52.098;21.006;2023-04-03T16:32:22;4.66;42.12
68128;SHT30;54931;52.098;21.006;2023-04-03T16:34:54;4.64;41.79
68128;SHT30;54931;52.098;21.006;2023-04-03T16:37:23;4.61;41.73
68128;SHT30;54931;52.098;21.006;2023-04-03T16:39:51;4.57;41.88
68128;SHT30;54931;52.098;21.006;2023-04-03T16:42:19;4.54;41.94
68128;SHT30;54931;52.098;21.006;2023-04-03T16:44:47;4.49;42.31
68128;SHT30;54931;52.098;21.006;2023-04-03T16:47:15;4.45;42.53
68128;SHT30;54931;52.098;21.006;2023-04-03T16:49:46;4.42;42.93
68128;SHT30;54931;52.098;21.006;2023-04-03T16:52:14;4.39;43.24
68128;SHT30;54931;52.098;21.006;2023-04-03T16:54:42;4.36;43.16
68128;SHT30;54931;52.098;21.006;2023-04-03T16:57:10;4.33;42.45
68128;SHT30;54931;52.098;21.006;2023-04-03T16:59:38;4.31;42.85
68128;SHT30;54931;52.098;21.006;2023-04-03T17:02:07;4.27;43.06
68128;SHT30;54931;52.098;21.006;2023-04-03T17:04:34;4.24;43.18
68128;SHT30;54931;52.098;21.006;2023-04-03T17:07:02;4.23;43.09
68128;SHT30;54931;52.098;21.006;2023-04-03T17:09:33;4.22;43.18
68128;SHT30;54931;52.098;21.006;2023-04-03T17:12:01;4.22;43.39
68128;SHT30;54931;52.098;21.006;2023-04-03T17:14:29;4.21;43.63
68128;SHT30;54931;52.098;21.006;2023-04-03T17:16:57;4.20;44.03
68128;SHT30;54931;52.098;21.006;2023-04-03T17:19:25;4.18;44.39
68128;SHT30;54931;52.098;21.006;2023-04-03T17:21:55;4.16;44.39